createdAt,value
2022-08-04T00:00:11.299Z,100582.66
2022-08-04T00:02:53.611Z,100579.25
2022-08-04T00:05:57.961Z,100575.00
2022-08-04T00:08:30.838Z,100579.44
2022-08-04T00:11:00.501Z,100577.91
2022-08-04T00:13:32.211Z,100578.06
2022-08-04T00:16:04.577Z,100575.41
2022-08-04T00:18:40.062Z,100579.94
2022-08-04T00:21:10.412Z,100583.00
2022-08-04T00:24:11.426Z,100574.25
2022-08-04T00:26:33.598Z,100587.25
2022-08-04T00:29:01.327Z,100590.81
2022-08-04T00:31:54.117Z,100584.97
2022-08-04T00:34:16.801Z,100573.97
2022-08-04T00:36:44.511Z,100580.94
2022-08-04T00:39:13.494Z,100586.00
2022-08-04T00:42:03.672Z,100572.28
2022-08-04T00:45:02.733Z,100573.44
2022-08-04T00:47:52.550Z,100581.28
2022-08-04T00:50:32.652Z,100572.00
2022-08-04T00:53:16.809Z,100564.25
2022-08-04T00:56:14.093Z,100574.63
2022-08-04T00:58:51.379Z,100576.50
2022-08-04T01:01:24.120Z,100568.94
2022-08-04T01:04:35.898Z,100569.88
2022-08-04T01:07:14.718Z,100580.56
2022-08-04T01:10:07.912Z,100580.72
2022-08-04T01:13:01.318Z,100565.25
2022-08-04T01:15:59.763Z,100577.47
2022-08-04T01:18:50.162Z,100580.22
2022-08-04T01:21:56.429Z,100575.78
2022-08-04T01:24:42.441Z,100575.25
2022-08-04T01:27:26.837Z,100572.84
2022-08-04T01:29:59.329Z,100573.84
2022-08-04T01:32:50.324Z,100571.28
2022-08-04T01:35:47.911Z,100571.44
2022-08-04T01:38:33.780Z,100575.03
2022-08-04T01:41:05.647Z,100575.03
2022-08-04T01:43:40.809Z,100571.59
2022-08-04T01:46:11.803Z,100575.34
2022-08-04T01:48:40.548Z,100573.63
2022-08-04T01:51:10.065Z,100568.34
2022-08-04T01:53:39.907Z,100568.34
2022-08-04T01:56:09.389Z,100548.94
2022-08-04T01:58:38.700Z,100550.28
2022-08-04T02:01:09.479Z,100568.00
2022-08-04T02:04:20.715Z,100575.81
2022-08-04T02:07:22.756Z,100577.66
2022-08-04T02:10:08.625Z,100577.81
2022-08-04T02:12:55.816Z,100573.56
2022-08-04T02:15:28.651Z,100571.03
2022-08-04T02:17:56.025Z,100571.03
2022-08-04T02:20:29.427Z,100573.72
2022-08-04T02:23:00.818Z,100564.19
2022-08-04T02:25:32.621Z,100566.09
2022-08-04T02:28:16.217Z,100565.53
2022-08-04T02:31:08.911Z,100569.72
2022-08-04T02:33:42.282Z,100568.09
2022-08-04T02:36:27.783Z,100564.69
2022-08-04T02:39:04.521Z,100561.25
2022-08-04T02:41:32.594Z,100563.00
2022-08-04T02:44:03.041Z,100566.53
2022-08-04T02:46:31.876Z,100560.63
2022-08-04T02:49:01.668Z,100557.94
2022-08-04T02:51:30.910Z,100550.38
2022-08-04T02:53:59.805Z,100558.16
2022-08-04T02:56:30.500Z,100558.31
2022-08-04T02:59:03.336Z,100553.22
2022-08-04T03:01:31.487Z,100549.81
2022-08-04T03:04:24.715Z,100549.66
2022-08-04T03:07:07.705Z,100555.91
2022-08-04T03:10:25.347Z,100548.34
2022-08-04T03:13:23.646Z,100551.97
2022-08-04T03:16:05.978Z,100557.22
2022-08-04T03:18:51.428Z,100555.50
2022-08-04T03:21:27.704Z,100546.84
2022-08-04T03:24:43.525Z,100552.94
2022-08-04T03:27:25.583Z,100550.56
2022-08-04T03:30:01.237Z,100553.94
2022-08-04T03:32:46.404Z,100550.41
2022-08-04T03:35:28.588Z,100550.41
2022-08-04T03:38:36.778Z,100545.28
2022-08-04T03:41:50.912Z,100555.81
2022-08-04T03:44:17.295Z,100553.31
2022-08-04T03:46:46.955Z,100554.25
2022-08-04T03:49:25.595Z,100556.03
2022-08-04T03:52:23.190Z,100552.56
2022-08-04T03:55:11.698Z,100550.69
2022-08-04T03:57:57.304Z,100551.69
2022-08-04T04:00:36.134Z,100559.50
2022-08-04T04:03:41.135Z,100562.78
2022-08-04T04:06:10.893Z,100566.19
2022-08-04T04:08:47.966Z,100555.66
2022-08-04T04:11:28.898Z,100558.97
2022-08-04T04:14:17.723Z,100562.19
2022-08-04T04:17:03.492Z,100572.59
2022-08-04T04:19:58.527Z,100563.75
2022-08-04T04:23:03.349Z,100565.28
2022-08-04T04:25:48.505Z,100566.06
2022-08-04T04:28:45.795Z,100572.13
2022-08-04T04:31:34.715Z,100570.25
2022-08-04T04:34:34.067Z,100575.22
2022-08-04T04:37:01.194Z,100573.25
2022-08-04T04:40:05.966Z,100574.72
2022-08-04T04:43:02.476Z,100565.06
2022-08-04T04:46:10.259Z,100569.16
2022-08-04T04:48:53.685Z,100580.16
2022-08-04T04:51:32.114Z,100577.53
2022-08-04T04:54:08.873Z,100584.31
2022-08-04T04:56:42.251Z,100584.94
2022-08-04T04:59:13.314Z,100584.78
2022-08-04T05:01:55.284Z,100572.28
2022-08-04T05:04:51.613Z,100583.53
2022-08-04T05:07:37.154Z,100581.53
2022-08-04T05:10:33.127Z,100584.78
2022-08-04T05:14:35.876Z,100586.88
2022-08-04T05:16:22.108Z,100587.38
2022-08-04T05:19:03.845Z,100584.34
2022-08-04T05:21:30.887Z,100588.25
2022-08-04T05:24:06.793Z,100588.75
2022-08-04T05:26:39.992Z,100589.28
2022-08-04T05:29:11.915Z,100581.13
2022-08-04T05:31:50.283Z,100586.91
2022-08-04T05:34:29.217Z,100569.56
2022-08-04T05:37:00.457Z,100573.38
2022-08-04T05:39:36.420Z,100582.31
2022-08-04T05:42:07.463Z,100571.63
2022-08-04T05:44:35.314Z,100578.44
2022-08-04T05:47:04.444Z,100577.31
2022-08-04T05:49:33.160Z,100579.44
2022-08-04T05:52:02.233Z,100580.44
2022-08-04T05:54:32.483Z,100587.91
2022-08-04T05:57:00.129Z,100579.53
2022-08-04T05:59:29.568Z,100585.34
2022-08-04T06:01:59.207Z,100578.66
2022-08-04T06:04:37.547Z,100580.75
2022-08-04T06:07:05.499Z,100581.16
2022-08-04T06:09:32.966Z,100581.47
2022-08-04T06:12:21.338Z,100589.72
2022-08-04T06:14:53.194Z,100592.38
2022-08-04T06:18:33.752Z,100584.81
2022-08-04T06:20:22.837Z,100591.78
2022-08-04T06:22:58.943Z,100590.13
2022-08-04T06:25:31.435Z,100592.19
2022-08-04T06:27:59.927Z,100595.56
2022-08-04T06:30:28.639Z,100594.59
2022-08-04T06:33:03.420Z,100595.41
2022-08-04T06:35:33.284Z,100595.09
2022-08-04T06:38:02.002Z,100587.09
2022-08-04T06:40:33.395Z,100589.66
2022-08-04T06:43:06.769Z,100586.09
2022-08-04T06:45:37.372Z,100594.41
2022-08-04T06:48:06.731Z,100586.03
2022-08-04T06:51:24.794Z,100583.19
2022-08-04T06:53:26.678Z,100557.50
2022-08-04T06:55:56.310Z,100584.44
2022-08-04T06:58:25.444Z,100544.31
2022-08-04T07:00:55.128Z,100589.25
2022-08-04T07:03:22.833Z,100587.91
2022-08-04T07:05:52.157Z,100586.56
2022-08-04T07:08:20.565Z,100587.34
2022-08-04T07:10:48.971Z,100589.34
2022-08-04T07:13:17.285Z,100581.66
2022-08-04T07:15:46.194Z,100586.00
2022-08-04T07:18:13.404Z,100587.28
2022-08-04T07:20:45.407Z,100588.13
2022-08-04T07:23:21.602Z,100583.94
2022-08-04T07:25:59.738Z,100591.47
2022-08-04T07:28:40.090Z,100586.97
2022-08-04T07:31:11.286Z,100586.91
2022-08-04T07:34:16.447Z,100571.28
2022-08-04T07:36:50.366Z,100572.19
2022-08-04T07:39:27.406Z,100582.47
2022-08-04T07:41:57.333Z,100575.88
2022-08-04T07:44:25.492Z,100580.47
2022-08-04T07:46:52.967Z,100586.41
2022-08-04T07:49:55.601Z,100586.22
2022-08-04T07:52:09.066Z,100576.72
2022-08-04T07:54:37.155Z,100575.09
2022-08-04T07:57:04.617Z,100581.91
2022-08-04T07:59:33.147Z,100574.34
2022-08-04T08:02:01.724Z,100565.53
2022-08-04T08:04:29.926Z,100577.53
2022-08-04T08:07:00.142Z,100579.22
2022-08-04T08:09:27.411Z,100577.53
2022-08-04T08:12:38.720Z,100574.75
2022-08-04T08:14:43.854Z,100567.69
2022-08-04T08:17:10.895Z,100573.63
2022-08-04T08:19:38.630Z,100567.72
2022-08-04T08:22:06.189Z,100571.34
2022-08-04T08:24:36.743Z,100567.25
2022-08-04T08:27:05.008Z,100570.34
2022-08-04T08:29:34.718Z,100571.16
2022-08-04T08:32:08.126Z,100565.91
2022-08-04T08:34:39.024Z,100575.47
2022-08-04T08:37:30.966Z,100575.72
2022-08-04T08:40:40.138Z,100571.75
2022-08-04T08:44:05.904Z,100569.72
2022-08-04T08:46:50.403Z,100572.50
2022-08-04T08:50:00.474Z,100577.03
2022-08-04T08:53:01.104Z,100583.13
2022-08-04T08:55:52.535Z,100582.56
2022-08-04T08:58:50.538Z,100577.28
2022-08-04T09:01:42.509Z,100572.09
2022-08-04T09:04:59.778Z,100567.41
2022-08-04T09:07:53.130Z,100572.78
2022-08-04T09:10:42.364Z,100577.84
2022-08-04T09:13:22.152Z,100581.69
2022-08-04T09:16:02.962Z,100576.72
2022-08-04T09:22:01.397Z,100570.13
2022-08-04T09:24:45.640Z,100561.16
2022-08-04T09:27:52.373Z,100557.78
2022-08-04T09:30:28.092Z,100560.97
2022-08-04T09:33:00.772Z,100567.63
2022-08-04T09:36:12.526Z,100563.81
2022-08-04T09:38:52.383Z,100567.88
2022-08-04T09:41:49.188Z,100569.84
2022-08-04T09:44:52.419Z,100557.63
2022-08-04T09:47:21.223Z,100564.75
2022-08-04T09:49:58.370Z,100558.22
2022-08-04T09:52:44.317Z,100557.56
2022-08-04T09:55:20.452Z,100562.69
2022-08-04T09:57:50.220Z,100558.47
2022-08-04T10:00:18.005Z,100562.31
2022-08-04T10:02:51.250Z,100558.47
2022-08-04T10:05:26.005Z,100549.94
2022-08-04T10:08:32.133Z,100557.56
2022-08-04T10:11:22.290Z,100556.44
2022-08-04T10:14:10.197Z,100554.56
2022-08-04T10:17:10.972Z,100551.41
2022-08-04T10:19:40.897Z,100536.88
2022-08-04T10:22:30.989Z,100543.06
2022-08-04T10:26:03.628Z,100536.34
2022-08-04T10:28:10.139Z,100538.03
2022-08-04T10:30:41.009Z,100533.34
2022-08-04T10:33:54.414Z,100535.56
2022-08-04T10:36:26.912Z,100543.47
2022-08-04T10:38:59.862Z,100541.13
2022-08-04T10:41:30.720Z,100544.81
2022-08-04T10:44:24.773Z,100548.00
2022-08-04T10:46:57.547Z,100538.44
2022-08-04T10:49:28.563Z,100517.78
2022-08-04T10:52:21.085Z,100536.41
2022-08-04T10:54:58.242Z,100513.53
2022-08-04T10:57:41.043Z,100532.72
2022-08-04T11:00:16.502Z,100534.72
2022-08-04T11:02:52.817Z,100532.00
2022-08-04T11:05:27.495Z,100532.00
2022-08-04T11:08:02.059Z,100520.75
2022-08-04T11:10:35.464Z,100517.16
2022-08-04T11:13:06.727Z,100516.53
2022-08-04T11:15:55.617Z,100503.44
2022-08-04T11:18:49.912Z,100513.19
2022-08-04T11:21:32.728Z,100506.16
2022-08-04T11:24:06.916Z,100506.84
2022-08-04T11:26:49.197Z,100509.34
2022-08-04T11:29:42.473Z,100506.50
2022-08-04T11:32:17.695Z,100516.56
2022-08-04T11:34:53.244Z,100505.13
2022-08-04T11:37:27.785Z,100515.56
2022-08-04T11:40:09.698Z,100512.19
2022-08-04T11:42:50.991Z,100517.38
2022-08-04T11:45:25.203Z,100510.50
2022-08-04T11:48:00.340Z,100502.78
2022-08-04T11:50:38.485Z,100510.03
2022-08-04T11:53:07.343Z,100510.00
2022-08-04T11:56:08.341Z,100511.78
2022-08-04T11:58:24.804Z,100500.00
2022-08-04T12:00:58.471Z,100509.44
2022-08-04T12:03:31.619Z,100507.44
2022-08-04T12:06:15.679Z,100485.72
2022-08-04T12:09:19.661Z,100508.25
2022-08-04T12:11:55.245Z,100508.06
2022-08-04T12:14:30.939Z,100496.94
2022-08-04T12:17:05.223Z,100499.31
2022-08-04T12:20:04.012Z,100497.78
2022-08-04T12:22:44.199Z,100490.94
2022-08-04T12:25:20.401Z,100502.69
2022-08-04T12:27:56.104Z,100505.66
2022-08-04T12:30:57.732Z,100504.66
2022-08-04T12:34:03.506Z,100500.63
2022-08-04T12:36:34.822Z,100504.13
2022-08-04T12:39:06.403Z,100495.72
2022-08-04T12:41:40.676Z,100493.13
2022-08-04T12:44:36.431Z,100485.03
2022-08-04T12:47:28.292Z,100485.91
2022-08-04T12:50:00.398Z,100488.44
2022-08-04T12:55:19.341Z,100490.50
2022-08-04T12:57:48.340Z,100484.06
2022-08-04T13:00:32.232Z,100474.22
2022-08-04T13:03:10.198Z,100489.44
2022-08-04T13:05:40.382Z,100486.72
2022-08-04T13:08:08.701Z,100478.91
2022-08-04T13:10:45.196Z,100473.38
2022-08-04T13:13:17.412Z,100462.28
2022-08-04T13:18:49.355Z,100468.44
2022-08-04T13:21:23.271Z,100468.44
2022-08-04T13:24:21.840Z,100455.25
2022-08-04T13:27:03.672Z,100469.31
2022-08-04T13:30:00.715Z,100460.63
2022-08-04T13:30:23.937Z,100470.41
2022-08-04T13:32:32.265Z,100457.56
2022-08-04T13:35:02.416Z,100453.13
2022-08-04T13:37:39.185Z,100461.56
2022-08-04T13:40:10.236Z,100454.19
2022-08-04T13:42:39.299Z,100460.19
2022-08-04T13:45:09.120Z,100461.44
2022-08-04T13:47:39.419Z,100453.34
2022-08-04T13:50:37.356Z,100445.25
2022-08-04T13:53:04.534Z,100442.16
2022-08-04T13:55:34.359Z,100444.75
2022-08-04T13:58:19.217Z,100440.34
2022-08-04T14:01:06.086Z,100441.19
2022-08-04T14:03:54.199Z,100444.34
2022-08-04T14:06:28.156Z,100426.66
2022-08-04T14:09:00.813Z,100441.72
2022-08-04T14:12:10.892Z,100416.41
2022-08-04T14:14:31.383Z,100438.63
2022-08-04T14:17:17.145Z,100437.56
2022-08-04T14:19:47.765Z,100437.47
2022-08-04T14:22:27.091Z,100430.91
2022-08-04T14:25:16.160Z,100430.34
2022-08-04T14:27:55.725Z,100419.41
2022-08-04T14:30:36.550Z,100429.53
2022-08-04T14:34:02.816Z,100425.06
2022-08-04T14:36:04.719Z,100418.84
2022-08-04T14:38:53.677Z,100419.16
2022-08-04T14:41:29.714Z,100412.13
2022-08-04T14:44:03.817Z,100412.41
2022-08-04T14:46:36.780Z,100403.16
2022-08-04T14:49:10.478Z,100409.91
2022-08-04T14:51:42.610Z,100403.47
2022-08-04T14:54:17.653Z,100411.41
2022-08-04T14:56:54.679Z,100397.94
2022-08-04T14:59:21.961Z,100402.44
2022-08-04T15:02:00.198Z,100400.59
2022-08-04T15:04:30.035Z,100397.53
2022-08-04T15:06:57.519Z,100407.81
2022-08-04T15:09:25.691Z,100399.09
2022-08-04T15:11:52.929Z,100398.25
2022-08-04T15:14:36.724Z,100392.38
2022-08-04T15:17:12.067Z,100391.38
2022-08-04T15:19:56.413Z,100387.31
2022-08-04T15:22:25.012Z,100392.66
2022-08-04T15:24:55.371Z,100395.47
2022-08-04T15:27:27.849Z,100391.56
2022-08-04T15:30:03.091Z,100389.19
2022-08-04T15:32:38.056Z,100384.78
2022-08-04T15:35:14.564Z,100374.66
2022-08-04T15:38:09.652Z,100387.06
2022-08-04T15:41:04.947Z,100390.69
2022-08-04T15:43:55.728Z,100389.31
2022-08-04T15:46:52.436Z,100386.38
2022-08-04T15:49:21.958Z,100381.19
2022-08-04T15:52:11.745Z,100372.75
2022-08-04T15:54:42.357Z,100375.84
2022-08-04T15:57:11.515Z,100373.19
2022-08-04T16:00:14.479Z,100369.44
2022-08-04T16:02:44.465Z,100372.53
2022-08-04T16:05:18.382Z,100372.66
2022-08-04T16:07:57.696Z,100371.13
2022-08-04T16:10:31.063Z,100378.44
2022-08-04T16:13:03.773Z,100378.75
2022-08-04T16:15:55.381Z,100371.97
2022-08-04T16:18:39.194Z,100375.66
2022-08-04T16:21:18.548Z,100372.97
2022-08-04T16:24:06.068Z,100365.47
2022-08-04T16:26:45.440Z,100370.28
2022-08-04T16:29:28.163Z,100370.00
2022-08-04T16:32:17.018Z,100370.56
2022-08-04T16:35:00.181Z,100372.56
2022-08-04T16:37:34.252Z,100373.97
2022-08-04T16:40:37.175Z,100366.66
2022-08-04T16:43:21.141Z,100373.94
2022-08-04T16:45:59.166Z,100362.13
2022-08-04T16:48:34.955Z,100372.25
2022-08-04T16:51:08.256Z,100370.88
2022-08-04T16:53:52.781Z,100373.91
2022-08-04T16:56:30.260Z,100370.09
2022-08-04T16:59:07.831Z,100365.75
2022-08-04T17:01:39.250Z,100369.66
2022-08-04T17:04:08.473Z,100373.31
2022-08-04T17:06:38.915Z,100371.66
2022-08-04T17:09:17.357Z,100366.84
2022-08-04T17:11:46.556Z,100361.50
2022-08-04T17:14:21.694Z,100365.16
2022-08-04T17:16:49.186Z,100363.63
2022-08-04T17:19:24.126Z,100364.28
2022-08-04T17:22:02.851Z,100373.13
2022-08-04T17:24:33.176Z,100374.41
2022-08-04T17:27:01.178Z,100380.13
2022-08-04T17:29:43.602Z,100376.91
2022-08-04T17:32:18.407Z,100374.63
2022-08-04T17:34:57.379Z,100376.88
2022-08-04T17:37:40.816Z,100376.41
2022-08-04T17:40:22.615Z,100376.81
2022-08-04T17:44:03.150Z,100377.22
2022-08-04T17:46:29.161Z,100368.03
2022-08-04T17:49:01.367Z,100368.16
2022-08-04T17:52:04.047Z,100366.75
2022-08-04T17:54:39.947Z,100370.78
2022-08-04T17:57:21.070Z,100367.50
2022-08-04T17:59:59.858Z,100370.72
2022-08-04T18:02:34.710Z,100362.28
2022-08-04T18:05:07.752Z,100364.47
2022-08-04T18:08:41.354Z,100362.22
2022-08-04T18:10:54.717Z,100364.53
2022-08-04T18:13:28.624Z,100365.19
2022-08-04T18:16:05.024Z,100362.47
2022-08-04T18:18:33.508Z,100348.25
2022-08-04T18:23:50.986Z,100370.06
2022-08-04T18:26:23.941Z,100373.94
2022-08-04T18:28:51.928Z,100356.34
2022-08-04T18:31:19.441Z,100364.31
2022-08-04T18:33:59.004Z,100369.25
2022-08-04T18:36:32.978Z,100372.53
2022-08-04T18:39:12.721Z,100380.19
2022-08-04T18:42:00.828Z,100371.63
2022-08-04T18:44:31.500Z,100377.44
2022-08-04T18:47:19.138Z,100378.78
2022-08-04T18:51:01.290Z,100377.81
2022-08-04T18:52:35.548Z,100372.16
2022-08-04T18:55:13.346Z,100388.13
2022-08-04T18:58:07.350Z,100393.94
2022-08-04T19:00:39.069Z,100398.78
2022-08-04T19:03:16.538Z,100401.03
2022-08-04T19:05:51.613Z,100391.97
2022-08-04T19:08:34.538Z,100405.50
2022-08-04T19:11:38.550Z,100398.03
2022-08-04T19:13:58.347Z,100394.28
2022-08-04T19:16:28.726Z,100390.31
2022-08-04T19:18:57.441Z,100390.31
2022-08-04T19:22:00.074Z,100394.16
2022-08-04T19:24:31.106Z,100391.00
2022-08-04T19:27:08.302Z,100389.81
2022-08-04T19:29:41.106Z,100382.50
2022-08-04T19:32:14.766Z,100373.31
2022-08-04T19:34:46.268Z,100388.16
2022-08-04T19:37:57.627Z,100383.09
2022-08-04T19:40:10.261Z,100380.81
2022-08-04T19:42:40.454Z,100388.13
2022-08-04T19:45:09.737Z,100397.41
2022-08-04T19:48:11.536Z,100391.75
2022-08-04T19:50:33.025Z,100380.97
2022-08-04T19:53:00.971Z,100390.41
2022-08-04T19:55:37.812Z,100385.44
2022-08-04T19:58:08.273Z,100391.06
2022-08-04T20:00:44.607Z,100388.88
2022-08-04T20:03:22.721Z,100390.69
2022-08-04T20:06:10.080Z,100394.66
2022-08-04T20:08:37.325Z,100404.88
2022-08-04T20:11:18.506Z,100397.91
2022-08-04T20:13:54.303Z,100407.06
2022-08-04T20:19:14.032Z,100397.09
2022-08-04T20:21:54.849Z,100404.53
2022-08-04T20:27:15.027Z,100419.22
2022-08-04T20:29:49.855Z,100406.28
2022-08-04T20:32:19.809Z,100411.19
2022-08-04T20:34:48.692Z,100410.69
2022-08-04T20:37:16.417Z,100417.97
2022-08-04T20:39:44.242Z,100412.06
2022-08-04T20:42:12.384Z,100415.69
2022-08-04T20:44:42.135Z,100402.09
2022-08-04T20:47:14.035Z,100407.41
2022-08-04T20:49:42.771Z,100401.06
2022-08-04T20:52:16.437Z,100407.81
2022-08-04T20:54:48.394Z,100408.25
2022-08-04T20:57:16.861Z,100410.38
2022-08-04T20:59:59.904Z,100403.84
2022-08-04T21:02:29.119Z,100412.94
2022-08-04T21:04:56.374Z,100408.81
2022-08-04T21:07:25.219Z,100399.59
2022-08-04T21:09:52.894Z,100410.19
2022-08-04T21:12:27.672Z,100417.16
2022-08-04T21:15:13.723Z,100418.34
2022-08-04T21:17:56.474Z,100409.97
2022-08-04T21:20:27.272Z,100393.53
2022-08-04T21:22:54.484Z,100413.16
2022-08-04T21:25:22.458Z,100413.56
2022-08-04T21:27:49.847Z,100402.59
2022-08-04T21:30:25.137Z,100403.78
2022-08-04T21:32:54.990Z,100413.41
2022-08-04T21:35:37.183Z,100416.47
2022-08-04T21:38:17.607Z,100411.19
2022-08-04T21:40:53.465Z,100417.53
2022-08-04T21:43:23.619Z,100409.69
2022-08-04T21:45:55.728Z,100409.88
2022-08-04T21:48:27.254Z,100413.50
2022-08-04T21:50:55.409Z,100417.50
2022-08-04T21:53:24.443Z,100412.19
2022-08-04T21:56:05.679Z,100409.88
2022-08-04T21:58:35.171Z,100401.63
2022-08-04T22:01:05.973Z,100413.25
2022-08-04T22:03:53.168Z,100415.53
2022-08-04T22:06:28.279Z,100401.97
2022-08-04T22:08:57.449Z,100404.63
2022-08-04T22:11:48.538Z,100398.78
2022-08-04T22:14:17.341Z,100392.16
2022-08-04T22:16:56.667Z,100409.72
2022-08-04T22:19:39.613Z,100400.38
2022-08-04T22:22:09.456Z,100398.59
2022-08-04T22:24:39.725Z,100398.78
2022-08-04T22:27:11.669Z,100390.50
2022-08-04T22:29:39.261Z,100401.81
2022-08-04T22:32:07.255Z,100399.59
2022-08-04T22:34:45.402Z,100400.34
2022-08-04T22:37:12.878Z,100403.91
2022-08-04T22:39:56.167Z,100391.88
2022-08-04T22:42:24.133Z,100395.44
2022-08-04T22:44:52.460Z,100392.25
2022-08-04T22:47:20.689Z,100398.47
2022-08-04T22:49:56.569Z,100397.72
2022-08-04T22:52:55.907Z,100390.75
2022-08-04T22:55:23.447Z,100379.53
2022-08-04T22:58:04.876Z,100380.56
2022-08-04T23:00:36.159Z,100396.63
2022-08-04T23:03:10.011Z,100384.53
2022-08-04T23:05:54.255Z,100384.66
2022-08-04T23:08:21.349Z,100383.22
2022-08-04T23:10:55.699Z,100373.25
2022-08-04T23:13:23.017Z,100380.22
2022-08-04T23:15:50.590Z,100393.25
2022-08-04T23:18:20.308Z,100372.59
2022-08-04T23:20:47.749Z,100382.13
2022-08-04T23:23:19.804Z,100371.75
2022-08-04T23:26:07.329Z,100382.50
2022-08-04T23:28:34.132Z,100372.47
2022-08-04T23:31:03.174Z,100380.41
2022-08-04T23:33:51.033Z,100375.22
2022-08-04T23:36:17.946Z,100374.56
2022-08-04T23:38:44.898Z,100370.50
2022-08-04T23:41:17.259Z,100366.25
2022-08-04T23:43:55.521Z,100357.13
2022-08-04T23:46:23.523Z,100366.44
2022-08-04T23:48:52.225Z,100366.66
2022-08-04T23:51:20.127Z,100359.69
2022-08-04T23:54:03.514Z,100356.28
2022-08-04T23:56:33.072Z,100354.75
2022-08-04T23:59:03.932Z,100362.78
